sensor_id;sensor_type;location;lat;lon;timestamp;P1;durP1;ratioP1;P2;durP2;ratioP2
81191;SDS011;70665;47.652;-2.730;2024-01-07T00:01:01;12.50;;;5.32;;
81191;SDS011;70665;47.652;-2.730;2024-01-07T00:03:27;11.38;;;4.90;;
81191;SDS011;70665;47.652;-2.730;2024-01-07T00:05:52;8.43;;;4.38;;
81191;SDS011;70665;47.652;-2.730;2024-01-07T00:08:18;10.63;;;4.95;;
81191;SDS011;70665;47.652;-2.730;2024-01-07T00:10:44;8.10;;;4.53;;
81191;SDS011;70665;47.652;-2.730;2024-01-07T00:13:09;9.73;;;4.55;;
81191;SDS011;70665;47.652;-2.730;2024-01-07T00:15:35;7.28;;;4.28;;
81191;SDS011;70665;47.652;-2.730;2024-01-07T00:18:01;8.88;;;4.22;;
81191;SDS011;70665;47.652;-2.730;2024-01-07T00:20:26;8.27;;;4.28;;
81191;SDS011;70665;47.652;-2.730;2024-01-07T00:22:52;5.47;;;3.03;;
81191;SDS011;70665;47.652;-2.730;2024-01-07T00:25:18;9.50;;;3.78;;
81191;SDS011;70665;47.652;-2.730;2024-01-07T00:27:43;7.05;;;3.72;;
81191;SDS011;70665;47.652;-2.730;2024-01-07T00:30:09;7.82;;;4.10;;
81191;SDS011;70665;47.652;-2.730;2024-01-07T00:32:35;8.90;;;3.42;;
81191;SDS011;70665;47.652;-2.730;2024-01-07T00:35:01;9.45;;;4.22;;
81191;SDS011;70665;47.652;-2.730;2024-01-07T00:37:27;9.85;;;4.68;;
81191;SDS011;70665;47.652;-2.730;2024-01-07T00:39:53;8.38;;;3.75;;
81191;SDS011;70665;47.652;-2.730;2024-01-07T00:42:19;6.57;;;3.67;;
81191;SDS011;70665;47.652;-2.730;2024-01-07T00:44:44;9.88;;;4.05;;
81191;SDS011;70665;47.652;-2.730;2024-01-07T00:47:10;6.28;;;3.83;;
81191;SDS011;70665;47.652;-2.730;2024-01-07T00:49:35;8.25;;;3.83;;
81191;SDS011;70665;47.652;-2.730;2024-01-07T00:52:01;10.20;;;3.78;;
81191;SDS011;70665;47.652;-2.730;2024-01-07T00:54:26;9.50;;;4.00;;
81191;SDS011;70665;47.652;-2.730;2024-01-07T00:56:52;14.75;;;5.00;;
81191;SDS011;70665;47.652;-2.730;2024-01-07T00:59:18;9.95;;;4.85;;
81191;SDS011;70665;47.652;-2.730;2024-01-07T01:01:43;11.23;;;5.32;;
81191;SDS011;70665;47.652;-2.730;2024-01-07T01:04:09;9.40;;;4.80;;
81191;SDS011;70665;47.652;-2.730;2024-01-07T01:06:34;9.18;;;4.47;;
81191;SDS011;70665;47.652;-2.730;2024-01-07T01:09:00;14.48;;;4.80;;
81191;SDS011;70665;47.652;-2.730;2024-01-07T01:11:26;8.93;;;4.53;;
81191;SDS011;70665;47.652;-2.730;2024-01-07T01:13:51;8.60;;;4.18;;
81191;SDS011;70665;47.652;-2.730;2024-01-07T01:16:17;10.02;;;4.78;;
81191;SDS011;70665;47.652;-2.730;2024-01-07T01:18:42;7.55;;;4.90;;
81191;SDS011;70665;47.652;-2.730;2024-01-07T01:21:09;8.52;;;5.18;;
81191;SDS011;70665;47.652;-2.730;2024-01-07T01:23:34;11.32;;;4.97;;
81191;SDS011;70665;47.652;-2.730;2024-01-07T01:26:00;11.10;;;5.13;;
81191;SDS011;70665;47.652;-2.730;2024-01-07T01:28:26;8.00;;;4.93;;
81191;SDS011;70665;47.652;-2.730;2024-01-07T01:30:51;9.77;;;4.75;;
81191;SDS011;70665;47.652;-2.730;2024-01-07T01:33:17;10.07;;;4.30;;
81191;SDS011;70665;47.652;-2.730;2024-01-07T01:35:42;10.57;;;4.63;;
81191;SDS011;70665;47.652;-2.730;2024-01-07T01:38:08;9.65;;;4.32;;
81191;SDS011;70665;47.652;-2.730;2024-01-07T01:40:34;8.95;;;3.88;;
81191;SDS011;70665;47.652;-2.730;2024-01-07T01:43:00;6.60;;;3.47;;
81191;SDS011;70665;47.652;-2.730;2024-01-07T01:45:25;8.63;;;3.63;;
81191;SDS011;70665;47.652;-2.730;2024-01-07T01:47:51;7.68;;;4.00;;
81191;SDS011;70665;47.652;-2.730;2024-01-07T01:50:16;7.55;;;4.25;;
81191;SDS011;70665;47.652;-2.730;2024-01-07T01:52:43;6.82;;;3.78;;
81191;SDS011;70665;47.652;-2.730;2024-01-07T01:55:10;6.35;;;3.70;;
81191;SDS011;70665;47.652;-2.730;2024-01-07T01:57:36;7.55;;;4.57;;
81191;SDS011;70665;47.652;-2.730;2024-01-07T02:00:04;10.30;;;3.95;;
81191;SDS011;70665;47.652;-2.730;2024-01-07T02:02:33;9.32;;;3.72;;
81191;SDS011;70665;47.652;-2.730;2024-01-07T02:05:02;8.93;;;3.75;;
81191;SDS011;70665;47.652;-2.730;2024-01-07T02:07:29;8.52;;;3.53;;
81191;SDS011;70665;47.652;-2.730;2024-01-07T02:09:55;8.48;;;3.97;;
81191;SDS011;70665;47.652;-2.730;2024-01-07T02:12:21;7.10;;;3.58;;
81191;SDS011;70665;47.652;-2.730;2024-01-07T02:14:46;7.53;;;3.88;;
81191;SDS011;70665;47.652;-2.730;2024-01-07T02:17:12;6.45;;;3.78;;
81191;SDS011;70665;47.652;-2.730;2024-01-07T02:19:38;10.13;;;3.28;;
81191;SDS011;70665;47.652;-2.730;2024-01-07T02:22:03;7.20;;;3.20;;
81191;SDS011;70665;47.652;-2.730;2024-01-07T02:24:29;5.78;;;3.08;;
81191;SDS011;70665;47.652;-2.730;2024-01-07T02:26:55;6.53;;;2.88;;
81191;SDS011;70665;47.652;-2.730;2024-01-07T02:29:21;5.00;;;2.72;;
81191;SDS011;70665;47.652;-2.730;2024-01-07T02:31:47;7.25;;;3.40;;
81191;SDS011;70665;47.652;-2.730;2024-01-07T02:34:12;6.03;;;3.10;;
81191;SDS011;70665;47.652;-2.730;2024-01-07T02:36:38;7.90;;;3.13;;
81191;SDS011;70665;47.652;-2.730;2024-01-07T02:39:03;7.50;;;3.70;;
81191;SDS011;70665;47.652;-2.730;2024-01-07T02:41:29;8.65;;;3.33;;
81191;SDS011;70665;47.652;-2.730;2024-01-07T02:43:55;5.90;;;3.13;;
81191;SDS011;70665;47.652;-2.730;2024-01-07T02:46:20;7.90;;;2.92;;
81191;SDS011;70665;47.652;-2.730;2024-01-07T02:48:47;6.35;;;2.92;;
81191;SDS011;70665;47.652;-2.730;2024-01-07T02:51:12;5.75;;;3.28;;
81191;SDS011;70665;47.652;-2.730;2024-01-07T02:53:38;5.13;;;2.67;;
81191;SDS011;70665;47.652;-2.730;2024-01-07T02:56:04;8.85;;;2.72;;
81191;SDS011;70665;47.652;-2.730;2024-01-07T02:58:30;7.07;;;3.28;;
81191;SDS011;70665;47.652;-2.730;2024-01-07T03:00:55;4.72;;;2.75;;
81191;SDS011;70665;47.652;-2.730;2024-01-07T03:03:21;7.43;;;2.75;;
81191;SDS011;70665;47.652;-2.730;2024-01-07T03:05:46;3.75;;;2.55;;
81191;SDS011;70665;47.652;-2.730;2024-01-07T03:08:13;6.20;;;2.63;;
81191;SDS011;70665;47.652;-2.730;2024-01-07T03:10:39;7.03;;;1.85;;
81191;SDS011;70665;47.652;-2.730;2024-01-07T03:13:05;5.20;;;2.55;;
81191;SDS011;70665;47.652;-2.730;2024-01-07T03:15:30;4.63;;;2.70;;
81191;SDS011;70665;47.652;-2.730;2024-01-07T03:17:56;4.70;;;2.67;;
81191;SDS011;70665;47.652;-2.730;2024-01-07T03:20:22;7.05;;;2.70;;
81191;SDS011;70665;47.652;-2.730;2024-01-07T03:22:48;5.18;;;2.55;;
81191;SDS011;70665;47.652;-2.730;2024-01-07T03:25:13;4.20;;;2.70;;
81191;SDS011;70665;47.652;-2.730;2024-01-07T03:27:39;3.83;;;2.58;;
81191;SDS011;70665;47.652;-2.730;2024-01-07T03:30:05;6.53;;;2.80;;
81191;SDS011;70665;47.652;-2.730;2024-01-07T03:32:31;5.97;;;2.78;;
81191;SDS011;70665;47.652;-2.730;2024-01-07T03:34:56;8.82;;;2.95;;
81191;SDS011;70665;47.652;-2.730;2024-01-07T03:37:22;6.03;;;2.88;;
81191;SDS011;70665;47.652;-2.730;2024-01-07T03:39:48;6.45;;;2.92;;
81191;SDS011;70665;47.652;-2.730;2024-01-07T03:42:14;7.20;;;2.53;;
81191;SDS011;70665;47.652;-2.730;2024-01-07T03:44:39;4.72;;;2.63;;
81191;SDS011;70665;47.652;-2.730;2024-01-07T03:47:05;6.75;;;2.65;;
81191;SDS011;70665;47.652;-2.730;2024-01-07T03:49:31;7.32;;;2.65;;
81191;SDS011;70665;47.652;-2.730;2024-01-07T03:51:57;5.97;;;2.75;;
81191;SDS011;70665;47.652;-2.730;2024-01-07T03:54:22;6.97;;;2.70;;
81191;SDS011;70665;47.652;-2.730;2024-01-07T03:56:48;6.55;;;2.83;;
81191;SDS011;70665;47.652;-2.730;2024-01-07T03:59:13;6.88;;;3.10;;
81191;SDS011;70665;47.652;-2.730;2024-01-07T04:01:39;7.10;;;3.35;;
81191;SDS011;70665;47.652;-2.730;2024-01-07T04:04:05;5.13;;;2.75;;
81191;SDS011;70665;47.652;-2.730;2024-01-07T04:06:30;4.15;;;2.60;;
81191;SDS011;70665;47.652;-2.730;2024-01-07T04:08:56;5.78;;;2.80;;
81191;SDS011;70665;47.652;-2.730;2024-01-07T04:11:21;7.25;;;2.65;;
81191;SDS011;70665;47.652;-2.730;2024-01-07T04:13:47;6.07;;;2.72;;
81191;SDS011;70665;47.652;-2.730;2024-01-07T04:16:16;5.28;;;2.80;;
81191;SDS011;70665;47.652;-2.730;2024-01-07T04:18:43;5.00;;;2.55;;
81191;SDS011;70665;47.652;-2.730;2024-01-07T04:21:09;4.65;;;2.50;;
81191;SDS011;70665;47.652;-2.730;2024-01-07T04:23:35;5.93;;;3.00;;
81191;SDS011;70665;47.652;-2.730;2024-01-07T04:26:01;6.75;;;3.00;;
81191;SDS011;70665;47.652;-2.730;2024-01-07T04:28:26;4.55;;;2.65;;
81191;SDS011;70665;47.652;-2.730;2024-01-07T04:30:52;5.18;;;3.13;;
81191;SDS011;70665;47.652;-2.730;2024-01-07T04:33:18;4.00;;;3.05;;
81191;SDS011;70665;47.652;-2.730;2024-01-07T04:35:43;7.35;;;2.63;;
81191;SDS011;70665;47.652;-2.730;2024-01-07T04:38:09;5.88;;;2.75;;
81191;SDS011;70665;47.652;-2.730;2024-01-07T04:40:35;6.18;;;2.78;;
81191;SDS011;70665;47.652;-2.730;2024-01-07T04:43:00;6.32;;;2.78;;
81191;SDS011;70665;47.652;-2.730;2024-01-07T04:45:26;7.63;;;3.10;;
81191;SDS011;70665;47.652;-2.730;2024-01-07T04:47:51;11.60;;;2.80;;
81191;SDS011;70665;47.652;-2.730;2024-01-07T04:50:17;5.80;;;2.90;;
81191;SDS011;70665;47.652;-2.730;2024-01-07T04:52:45;9.35;;;3.03;;
81191;SDS011;70665;47.652;-2.730;2024-01-07T04:57:36;4.60;;;2.47;;
81191;SDS011;70665;47.652;-2.730;2024-01-07T05:00:02;5.50;;;3.25;;
81191;SDS011;70665;47.652;-2.730;2024-01-07T05:04:54;5.47;;;2.70;;
81191;SDS011;70665;47.652;-2.730;2024-01-07T05:07:20;5.90;;;2.58;;
81191;SDS011;70665;47.652;-2.730;2024-01-07T05:09:45;4.72;;;2.38;;
81191;SDS011;70665;47.652;-2.730;2024-01-07T05:12:11;3.90;;;2.58;;
81191;SDS011;70665;47.652;-2.730;2024-01-07T05:14:36;4.63;;;2.42;;
81191;SDS011;70665;47.652;-2.730;2024-01-07T05:17:02;7.32;;;2.42;;
81191;SDS011;70665;47.652;-2.730;2024-01-07T05:19:29;6.38;;;2.72;;
81191;SDS011;70665;47.652;-2.730;2024-01-07T05:21:54;4.38;;;2.53;;
81191;SDS011;70665;47.652;-2.730;2024-01-07T05:24:20;8.43;;;3.00;;
81191;SDS011;70665;47.652;-2.730;2024-01-07T05:26:46;4.70;;;2.28;;
81191;SDS011;70665;47.652;-2.730;2024-01-07T05:29:11;4.00;;;2.20;;
81191;SDS011;70665;47.652;-2.730;2024-01-07T05:31:37;4.60;;;2.15;;
81191;SDS011;70665;47.652;-2.730;2024-01-07T05:34:04;3.60;;;1.95;;
81191;SDS011;70665;47.652;-2.730;2024-01-07T05:36:29;3.85;;;2.05;;
81191;SDS011;70665;47.652;-2.730;2024-01-07T05:38:55;6.72;;;2.20;;
81191;SDS011;70665;47.652;-2.730;2024-01-07T05:41:21;3.85;;;2.30;;
81191;SDS011;70665;47.652;-2.730;2024-01-07T05:43:47;4.20;;;2.03;;
81191;SDS011;70665;47.652;-2.730;2024-01-07T05:46:12;4.18;;;2.08;;
81191;SDS011;70665;47.652;-2.730;2024-01-07T05:48:45;4.13;;;2.50;;
81191;SDS011;70665;47.652;-2.730;2024-01-07T05:51:12;4.18;;;2.38;;
81191;SDS011;70665;47.652;-2.730;2024-01-07T05:53:39;4.53;;;2.30;;
81191;SDS011;70665;47.652;-2.730;2024-01-07T05:56:05;5.15;;;2.22;;
81191;SDS011;70665;47.652;-2.730;2024-01-07T05:58:31;8.30;;;2.60;;
81191;SDS011;70665;47.652;-2.730;2024-01-07T06:00:56;9.18;;;3.22;;
81191;SDS011;70665;47.652;-2.730;2024-01-07T06:03:22;10.70;;;4.00;;
81191;SDS011;70665;47.652;-2.730;2024-01-07T06:05:48;9.27;;;3.47;;
81191;SDS011;70665;47.652;-2.730;2024-01-07T06:08:14;5.30;;;2.30;;
81191;SDS011;70665;47.652;-2.730;2024-01-07T06:10:40;6.70;;;2.92;;
81191;SDS011;70665;47.652;-2.730;2024-01-07T06:13:06;3.97;;;2.38;;
81191;SDS011;70665;47.652;-2.730;2024-01-07T06:15:31;4.78;;;2.38;;
81191;SDS011;70665;47.652;-2.730;2024-01-07T06:17:57;7.53;;;2.40;;
81191;SDS011;70665;47.652;-2.730;2024-01-07T06:20:23;5.70;;;2.38;;
81191;SDS011;70665;47.652;-2.730;2024-01-07T06:22:49;3.58;;;2.28;;
81191;SDS011;70665;47.652;-2.730;2024-01-07T06:25:15;2.90;;;1.63;;
81191;SDS011;70665;47.652;-2.730;2024-01-07T06:27:41;5.40;;;2.25;;
81191;SDS011;70665;47.652;-2.730;2024-01-07T06:30:07;4.28;;;2.03;;
81191;SDS011;70665;47.652;-2.730;2024-01-07T06:32:33;3.17;;;2.17;;
81191;SDS011;70665;47.652;-2.730;2024-01-07T06:35:00;7.25;;;2.30;;
81191;SDS011;70665;47.652;-2.730;2024-01-07T06:37:26;4.22;;;2.03;;
81191;SDS011;70665;47.652;-2.730;2024-01-07T06:39:54;5.90;;;1.80;;
81191;SDS011;70665;47.652;-2.730;2024-01-07T06:42:20;4.35;;;1.92;;
81191;SDS011;70665;47.652;-2.730;2024-01-07T06:44:45;3.13;;;1.90;;
81191;SDS011;70665;47.652;-2.730;2024-01-07T06:47:11;3.00;;;1.80;;
81191;SDS011;70665;47.652;-2.730;2024-01-07T06:49:37;4.82;;;1.75;;
81191;SDS011;70665;47.652;-2.730;2024-01-07T06:52:03;5.47;;;2.05;;
81191;SDS011;70665;47.652;-2.730;2024-01-07T06:54:30;3.08;;;1.83;;
81191;SDS011;70665;47.652;-2.730;2024-01-07T06:56:55;5.60;;;2.42;;
81191;SDS011;70665;47.652;-2.730;2024-01-07T06:59:21;3.63;;;2.15;;
81191;SDS011;70665;47.652;-2.730;2024-01-07T07:01:46;4.85;;;1.98;;
81191;SDS011;70665;47.652;-2.730;2024-01-07T07:04:12;3.13;;;1.80;;
81191;SDS011;70665;47.652;-2.730;2024-01-07T07:06:38;4.80;;;2.53;;
81191;SDS011;70665;47.652;-2.730;2024-01-07T07:09:03;4.22;;;2.08;;
81191;SDS011;70665;47.652;-2.730;2024-01-07T07:11:29;5.65;;;2.00;;
81191;SDS011;70665;47.652;-2.730;2024-01-07T07:13:54;2.70;;;1.80;;
81191;SDS011;70665;47.652;-2.730;2024-01-07T07:16:20;3.60;;;1.80;;
81191;SDS011;70665;47.652;-2.730;2024-01-07T07:18:46;6.90;;;2.38;;
81191;SDS011;70665;47.652;-2.730;2024-01-07T07:21:12;3.20;;;1.90;;
81191;SDS011;70665;47.652;-2.730;2024-01-07T07:23:37;3.78;;;2.15;;
81191;SDS011;70665;47.652;-2.730;2024-01-07T07:26:03;3.42;;;1.80;;
81191;SDS011;70665;47.652;-2.730;2024-01-07T07:28:28;5.93;;;2.78;;
81191;SDS011;70665;47.652;-2.730;2024-01-07T07:30:54;4.82;;;2.20;;
81191;SDS011;70665;47.652;-2.730;2024-01-07T07:33:20;5.95;;;2.30;;
81191;SDS011;70665;47.652;-2.730;2024-01-07T07:35:45;6.90;;;2.00;;
81191;SDS011;70665;47.652;-2.730;2024-01-07T07:38:11;3.42;;;2.05;;
81191;SDS011;70665;47.652;-2.730;2024-01-07T07:40:37;6.82;;;2.55;;
81191;SDS011;70665;47.652;-2.730;2024-01-07T07:43:03;6.50;;;2.42;;
81191;SDS011;70665;47.652;-2.730;2024-01-07T07:45:28;5.72;;;2.60;;
81191;SDS011;70665;47.652;-2.730;2024-01-07T07:47:54;5.93;;;4.43;;
81191;SDS011;70665;47.652;-2.730;2024-01-07T07:50:20;4.97;;;2.30;;
81191;SDS011;70665;47.652;-2.730;2024-01-07T07:52:46;4.65;;;2.40;;
81191;SDS011;70665;47.652;-2.730;2024-01-07T07:55:12;5.07;;;2.40;;
81191;SDS011;70665;47.652;-2.730;2024-01-07T07:57:38;4.20;;;2.10;;
81191;SDS011;70665;47.652;-2.730;2024-01-07T08:00:04;4.75;;;2.20;;
81191;SDS011;70665;47.652;-2.730;2024-01-07T08:02:31;5.30;;;2.33;;
81191;SDS011;70665;47.652;-2.730;2024-01-07T08:04:57;3.78;;;2.33;;
81191;SDS011;70665;47.652;-2.730;2024-01-07T08:07:22;3.33;;;2.47;;
81191;SDS011;70665;47.652;-2.730;2024-01-07T08:09:48;4.25;;;2.47;;
81191;SDS011;70665;47.652;-2.730;2024-01-07T08:12:13;8.00;;;2.83;;
81191;SDS011;70665;47.652;-2.730;2024-01-07T08:14:39;4.55;;;2.67;;
81191;SDS011;70665;47.652;-2.730;2024-01-07T08:17:07;4.97;;;2.30;;
81191;SDS011;70665;47.652;-2.730;2024-01-07T08:19:33;4.05;;;2.05;;
81191;SDS011;70665;47.652;-2.730;2024-01-07T08:21:59;4.25;;;2.28;;
81191;SDS011;70665;47.652;-2.730;2024-01-07T08:24:25;5.20;;;2.35;;
81191;SDS011;70665;47.652;-2.730;2024-01-07T08:26:50;4.22;;;2.35;;
81191;SDS011;70665;47.652;-2.730;2024-01-07T08:29:16;5.13;;;2.70;;
81191;SDS011;70665;47.652;-2.730;2024-01-07T08:31:42;8.13;;;2.72;;
81191;SDS011;70665;47.652;-2.730;2024-01-07T08:34:08;6.10;;;2.60;;
81191;SDS011;70665;47.652;-2.730;2024-01-07T08:36:34;6.63;;;2.80;;
81191;SDS011;70665;47.652;-2.730;2024-01-07T08:38:59;5.70;;;3.00;;
81191;SDS011;70665;47.652;-2.730;2024-01-07T08:41:25;7.55;;;2.75;;
81191;SDS011;70665;47.652;-2.730;2024-01-07T08:43:51;5.35;;;3.10;;
81191;SDS011;70665;47.652;-2.730;2024-01-07T08:46:19;12.93;;;3.30;;
81191;SDS011;70665;47.652;-2.730;2024-01-07T08:48:46;5.38;;;2.95;;
81191;SDS011;70665;47.652;-2.730;2024-01-07T08:51:12;10.13;;;3.20;;
81191;SDS011;70665;47.652;-2.730;2024-01-07T08:53:38;4.05;;;2.50;;
81191;SDS011;70665;47.652;-2.730;2024-01-07T08:56:06;7.97;;;3.15;;
81191;SDS011;70665;47.652;-2.730;2024-01-07T08:58:32;6.55;;;3.40;;
81191;SDS011;70665;47.652;-2.730;2024-01-07T09:00:57;6.47;;;3.10;;
81191;SDS011;70665;47.652;-2.730;2024-01-07T09:03:23;9.10;;;3.42;;
81191;SDS011;70665;47.652;-2.730;2024-01-07T09:05:49;7.90;;;3.20;;
81191;SDS011;70665;47.652;-2.730;2024-01-07T09:08:14;5.43;;;2.38;;
81191;SDS011;70665;47.652;-2.730;2024-01-07T09:10:40;5.35;;;2.40;;
81191;SDS011;70665;47.652;-2.730;2024-01-07T09:13:06;4.97;;;2.70;;
81191;SDS011;70665;47.652;-2.730;2024-01-07T09:15:31;3.55;;;2.10;;
81191;SDS011;70665;47.652;-2.730;2024-01-07T09:17:57;5.22;;;2.40;;
81191;SDS011;70665;47.652;-2.730;2024-01-07T09:20:23;6.45;;;2.67;;
81191;SDS011;70665;47.652;-2.730;2024-01-07T09:22:48;7.30;;;3.00;;
81191;SDS011;70665;47.652;-2.730;2024-01-07T09:25:14;5.03;;;2.70;;
81191;SDS011;70665;47.652;-2.730;2024-01-07T09:27:40;3.92;;;2.90;;
81191;SDS011;70665;47.652;-2.730;2024-01-07T09:30:06;7.38;;;2.70;;
81191;SDS011;70665;47.652;-2.730;2024-01-07T09:32:32;4.95;;;2.60;;
81191;SDS011;70665;47.652;-2.730;2024-01-07T09:37:24;7.93;;;2.90;;
81191;SDS011;70665;47.652;-2.730;2024-01-07T09:39:50;7.63;;;3.28;;
81191;SDS011;70665;47.652;-2.730;2024-01-07T09:42:16;10.82;;;3.25;;
81191;SDS011;70665;47.652;-2.730;2024-01-07T09:44:43;8.38;;;3.55;;
81191;SDS011;70665;47.652;-2.730;2024-01-07T09:47:12;7.28;;;4.10;;
81191;SDS011;70665;47.652;-2.730;2024-01-07T09:49:39;7.38;;;3.33;;
81191;SDS011;70665;47.652;-2.730;2024-01-07T09:52:06;6.30;;;3.47;;
81191;SDS011;70665;47.652;-2.730;2024-01-07T09:54:33;4.85;;;2.80;;
81191;SDS011;70665;47.652;-2.730;2024-01-07T09:57:03;6.22;;;3.50;;
81191;SDS011;70665;47.652;-2.730;2024-01-07T09:59:33;7.68;;;2.95;;
81191;SDS011;70665;47.652;-2.730;2024-01-07T10:02:00;6.00;;;2.50;;
81191;SDS011;70665;47.652;-2.730;2024-01-07T10:04:26;6.68;;;2.65;;
81191;SDS011;70665;47.652;-2.730;2024-01-07T10:06:55;6.28;;;2.83;;
81191;SDS011;70665;47.652;-2.730;2024-01-07T10:09:24;5.30;;;2.38;;
81191;SDS011;70665;47.652;-2.730;2024-01-07T10:11:54;6.93;;;2.47;;
81191;SDS011;70665;47.652;-2.730;2024-01-07T10:14:19;4.45;;;2.65;;
81191;SDS011;70665;47.652;-2.730;2024-01-07T10:16:47;3.90;;;2.25;;
81191;SDS011;70665;47.652;-2.730;2024-01-07T10:19:19;6.15;;;2.70;;
81191;SDS011;70665;47.652;-2.730;2024-01-07T10:22:01;7.50;;;2.63;;
81191;SDS011;70665;47.652;-2.730;2024-01-07T10:24:37;6.00;;;2.38;;
81191;SDS011;70665;47.652;-2.730;2024-01-07T10:27:06;8.25;;;3.35;;
81191;SDS011;70665;47.652;-2.730;2024-01-07T10:29:33;4.15;;;2.75;;
81191;SDS011;70665;47.652;-2.730;2024-01-07T10:31:59;8.20;;;2.83;;
81191;SDS011;70665;47.652;-2.730;2024-01-07T10:34:33;5.35;;;2.38;;
81191;SDS011;70665;47.652;-2.730;2024-01-07T10:37:01;6.55;;;2.85;;
81191;SDS011;70665;47.652;-2.730;2024-01-07T10:39:28;6.03;;;2.58;;
81191;SDS011;70665;47.652;-2.730;2024-01-07T10:41:57;7.55;;;3.40;;
81191;SDS011;70665;47.652;-2.730;2024-01-07T10:44:24;6.63;;;3.15;;
81191;SDS011;70665;47.652;-2.730;2024-01-07T10:46:51;6.72;;;2.78;;
81191;SDS011;70665;47.652;-2.730;2024-01-07T10:49:21;6.65;;;2.85;;
81191;SDS011;70665;47.652;-2.730;2024-01-07T10:57:04;6.75;;;2.75;;
81191;SDS011;70665;47.652;-2.730;2024-01-07T10:59:48;5.20;;;2.83;;
81191;SDS011;70665;47.652;-2.730;2024-01-07T11:02:16;6.72;;;2.53;;
81191;SDS011;70665;47.652;-2.730;2024-01-07T11:04:45;7.60;;;2.88;;
81191;SDS011;70665;47.652;-2.730;2024-01-07T11:09:40;5.55;;;2.67;;
81191;SDS011;70665;47.652;-2.730;2024-01-07T11:12:18;8.05;;;2.92;;
81191;SDS011;70665;47.652;-2.730;2024-01-07T11:14:44;6.28;;;2.50;;
81191;SDS011;70665;47.652;-2.730;2024-01-07T11:20:26;4.35;;;2.08;;
81191;SDS011;70665;47.652;-2.730;2024-01-07T11:22:51;3.97;;;2.30;;
81191;SDS011;70665;47.652;-2.730;2024-01-07T11:25:32;6.22;;;2.50;;
81191;SDS011;70665;47.652;-2.730;2024-01-07T11:27:58;4.30;;;2.53;;
81191;SDS011;70665;47.652;-2.730;2024-01-07T11:30:26;3.83;;;2.05;;
81191;SDS011;70665;47.652;-2.730;2024-01-07T11:32:58;6.38;;;2.50;;
81191;SDS011;70665;47.652;-2.730;2024-01-07T11:38:19;4.97;;;1.95;;
81191;SDS011;70665;47.652;-2.730;2024-01-07T11:40:45;6.38;;;2.55;;
81191;SDS011;70665;47.652;-2.730;2024-01-07T11:43:14;5.18;;;2.20;;
81191;SDS011;70665;47.652;-2.730;2024-01-07T11:45:39;3.55;;;2.05;;
81191;SDS011;70665;47.652;-2.730;2024-01-07T11:48:05;5.07;;;2.38;;
81191;SDS011;70665;47.652;-2.730;2024-01-07T11:50:31;6.90;;;2.00;;
81191;SDS011;70665;47.652;-2.730;2024-01-07T11:52:56;7.00;;;2.80;;
81191;SDS011;70665;47.652;-2.730;2024-01-07T11:55:22;5.88;;;2.38;;
81191;SDS011;70665;47.652;-2.730;2024-01-07T11:57:49;3.70;;;2.05;;
81191;SDS011;70665;47.652;-2.730;2024-01-07T12:00:16;6.00;;;2.10;;
81191;SDS011;70665;47.652;-2.730;2024-01-07T12:02:42;7.80;;;2.25;;
81191;SDS011;70665;47.652;-2.730;2024-01-07T12:05:08;5.25;;;2.30;;
81191;SDS011;70665;47.652;-2.730;2024-01-07T12:07:34;3.15;;;1.80;;
81191;SDS011;70665;47.652;-2.730;2024-01-07T12:10:02;6.93;;;1.90;;
81191;SDS011;70665;47.652;-2.730;2024-01-07T12:12:28;5.93;;;2.63;;
81191;SDS011;70665;47.652;-2.730;2024-01-07T12:14:54;4.80;;;1.73;;
81191;SDS011;70665;47.652;-2.730;2024-01-07T12:17:21;4.13;;;1.90;;
81191;SDS011;70665;47.652;-2.730;2024-01-07T12:19:46;6.22;;;2.72;;
81191;SDS011;70665;47.652;-2.730;2024-01-07T12:22:12;7.22;;;1.85;;
81191;SDS011;70665;47.652;-2.730;2024-01-07T12:24:38;5.18;;;3.08;;
81191;SDS011;70665;47.652;-2.730;2024-01-07T12:27:07;9.57;;;3.38;;
81191;SDS011;70665;47.652;-2.730;2024-01-07T12:29:32;4.65;;;2.20;;
81191;SDS011;70665;47.652;-2.730;2024-01-07T12:31:59;7.45;;;2.58;;
81191;SDS011;70665;47.652;-2.730;2024-01-07T12:34:25;6.85;;;2.50;;
81191;SDS011;70665;47.652;-2.730;2024-01-07T12:36:51;6.28;;;2.58;;
81191;SDS011;70665;47.652;-2.730;2024-01-07T12:39:16;5.78;;;2.55;;
81191;SDS011;70665;47.652;-2.730;2024-01-07T12:44:08;3.45;;;2.00;;
81191;SDS011;70665;47.652;-2.730;2024-01-07T12:46:34;5.35;;;2.70;;
81191;SDS011;70665;47.652;-2.730;2024-01-07T12:49:00;6.72;;;2.55;;
81191;SDS011;70665;47.652;-2.730;2024-01-07T12:51:25;5.82;;;2.42;;
81191;SDS011;70665;47.652;-2.730;2024-01-07T12:53:51;3.53;;;1.95;;
81191;SDS011;70665;47.652;-2.730;2024-01-07T12:56:17;5.38;;;2.70;;
81191;SDS011;70665;47.652;-2.730;2024-01-07T12:58:42;3.28;;;2.00;;
81191;SDS011;70665;47.652;-2.730;2024-01-07T13:01:08;7.30;;;2.25;;
81191;SDS011;70665;47.652;-2.730;2024-01-07T13:03:35;3.88;;;2.20;;
81191;SDS011;70665;47.652;-2.730;2024-01-07T13:06:01;3.70;;;1.70;;
81191;SDS011;70665;47.652;-2.730;2024-01-07T13:08:27;5.40;;;2.30;;
81191;SDS011;70665;47.652;-2.730;2024-01-07T13:10:53;5.13;;;1.90;;
81191;SDS011;70665;47.652;-2.730;2024-01-07T13:13:20;3.92;;;1.75;;
81191;SDS011;70665;47.652;-2.730;2024-01-07T13:15:45;3.33;;;2.33;;
81191;SDS011;70665;47.652;-2.730;2024-01-07T13:18:11;4.28;;;1.85;;
81191;SDS011;70665;47.652;-2.730;2024-01-07T13:20:40;9.52;;;3.55;;
81191;SDS011;70665;47.652;-2.730;2024-01-07T13:23:05;9.18;;;4.07;;
81191;SDS011;70665;47.652;-2.730;2024-01-07T13:25:31;10.82;;;4.20;;
81191;SDS011;70665;47.652;-2.730;2024-01-07T13:27:57;4.03;;;2.30;;
81191;SDS011;70665;47.652;-2.730;2024-01-07T13:30:23;5.20;;;1.80;;
81191;SDS011;70665;47.652;-2.730;2024-01-07T13:32:49;5.90;;;2.65;;
81191;SDS011;70665;47.652;-2.730;2024-01-07T13:35:16;6.80;;;2.35;;
81191;SDS011;70665;47.652;-2.730;2024-01-07T13:37:42;7.95;;;2.97;;
81191;SDS011;70665;47.652;-2.730;2024-01-07T13:40:08;4.63;;;2.15;;
81191;SDS011;70665;47.652;-2.730;2024-01-07T13:42:35;3.17;;;2.20;;
81191;SDS011;70665;47.652;-2.730;2024-01-07T13:45:04;5.38;;;2.00;;
81191;SDS011;70665;47.652;-2.730;2024-01-07T13:47:30;5.20;;;1.83;;
81191;SDS011;70665;47.652;-2.730;2024-01-07T13:49:55;7.45;;;2.20;;
81191;SDS011;70665;47.652;-2.730;2024-01-07T13:52:21;4.68;;;2.20;;
81191;SDS011;70665;47.652;-2.730;2024-01-07T13:54:47;8.70;;;3.00;;
81191;SDS011;70665;47.652;-2.730;2024-01-07T13:57:13;5.55;;;2.70;;
81191;SDS011;70665;47.652;-2.730;2024-01-07T13:59:39;4.07;;;2.38;;
81191;SDS011;70665;47.652;-2.730;2024-01-07T14:02:06;4.18;;;1.80;;
81191;SDS011;70665;47.652;-2.730;2024-01-07T14:04:33;3.88;;;1.75;;
81191;SDS011;70665;47.652;-2.730;2024-01-07T14:06:58;3.45;;;1.50;;
81191;SDS011;70665;47.652;-2.730;2024-01-07T14:09:24;4.15;;;1.70;;
81191;SDS011;70665;47.652;-2.730;2024-01-07T14:11:50;4.25;;;1.77;;
81191;SDS011;70665;47.652;-2.730;2024-01-07T14:14:17;4.28;;;1.77;;
81191;SDS011;70665;47.652;-2.730;2024-01-07T14:16:44;2.97;;;1.48;;
81191;SDS011;70665;47.652;-2.730;2024-01-07T14:19:10;3.60;;;1.80;;
81191;SDS011;70665;47.652;-2.730;2024-01-07T14:21:36;7.32;;;2.20;;
81191;SDS011;70665;47.652;-2.730;2024-01-07T14:24:02;3.50;;;1.45;;
81191;SDS011;70665;47.652;-2.730;2024-01-07T14:26:28;6.78;;;1.90;;
81191;SDS011;70665;47.652;-2.730;2024-01-07T14:28:53;5.32;;;2.22;;
81191;SDS011;70665;47.652;-2.730;2024-01-07T14:31:19;4.72;;;1.83;;
81191;SDS011;70665;47.652;-2.730;2024-01-07T14:33:45;4.15;;;1.70;;
81191;SDS011;70665;47.652;-2.730;2024-01-07T14:36:10;3.15;;;1.73;;
81191;SDS011;70665;47.652;-2.730;2024-01-07T14:38:47;3.00;;;1.65;;
81191;SDS011;70665;47.652;-2.730;2024-01-07T14:41:13;3.08;;;1.73;;
81191;SDS011;70665;47.652;-2.730;2024-01-07T14:43:40;2.88;;;1.42;;
81191;SDS011;70665;47.652;-2.730;2024-01-07T14:46:06;2.90;;;1.38;;
81191;SDS011;70665;47.652;-2.730;2024-01-07T14:48:33;2.65;;;1.40;;
81191;SDS011;70665;47.652;-2.730;2024-01-07T14:50:59;3.20;;;1.65;;